Time;durP1;ratioP1;P1;durP2;ratioP2;P2;SDS_P1;SDS_P2;PMS_P1;PMS_P2;Temp;Humidity;BMP_temperature;BMP_pressure;BME280_temperature;BME280_humidity;BME280_pressure;Samples;Min_cycle;Max_cycle;Signal;HPM_P1;HPM_P2
2023/08/03 07:23:23;;;;;;;4.20;2.45;;;;;;;-145.79;100.00;75800.56;5313288;27;20401;-72
2023/08/03 07:25:55;;;;;;;4.50;1.92;;;;;;;-145.79;100.00;75806.94;5300430;28;20039;-71
2023/08/03 07:28:27;;;;;;;4.53;2.03;;;;;;;-145.79;100.00;75813.28;5299962;28;20024;-70
2023/08/03 07:30:58;;;;;;;4.13;1.70;;;;;;;-145.79;100.00;75817.53;5308496;28;20052;-71
2023/08/03 07:33:29;;;;;;;8.40;2.63;;;;;;;-145.79;100.00;75802.69;5305145;28;20106;-71
2023/08/03 07:36:01;;;;;;;6.65;2.13;;;;;;;-145.79;100.00;75794.22;5305160;28;20024;-71
2023/08/03 07:38:32;;;;;;;5.25;2.08;;;;;;;-145.79;100.00;75792.09;5300206;28;20479;-71
2023/08/03 07:41:06;;;;;;;7.40;2.63;;;;;;;-145.79;100.00;75777.28;5300061;28;20028;-71
2023/08/03 07:43:37;;;;;;;4.35;2.10;;;;;;;-145.79;100.00;75783.63;5300545;28;20028;-71
2023/08/03 07:46:08;;;;;;;9.50;2.22;;;;;;;-145.79;100.00;75783.63;5300492;28;20020;-71
2023/08/03 07:48:40;;;;;;;6.22;1.80;;;;;;;-145.79;100.00;75792.09;5304925;28;20442;-71
2023/08/03 07:51:17;;;;;;;7.65;2.60;;;;;;;-145.79;100.00;75787.88;5300719;28;20056;-70
2023/08/03 07:53:49;;;;;;;5.78;1.83;;;;;;;-145.79;99.46;75787.88;5290720;28;20029;-71
2023/08/03 07:56:22;;;;;;;8.23;2.30;;;;;;;-145.79;99.67;75787.88;5300016;28;20029;-71
2023/08/03 07:58:53;;;;;;;6.47;2.05;;;;;;;-145.79;99.79;75798.47;5292261;28;20024;-71
2023/08/03 08:01:24;;;;;;;5.18;2.22;;;;;;;-145.79;99.99;75809.06;5299470;28;20032;-71
2023/08/03 08:03:56;;;;;;;6.75;2.60;;;;;;;-145.79;100.00;75806.94;5300230;28;20024;-71
2023/08/03 08:06:27;;;;;;;5.15;2.00;;;;;;;-145.79;100.00;75819.66;5300271;28;20035;-71
2023/08/03 08:08:58;;;;;;;7.13;2.70;;;;;;;-145.79;100.00;75821.75;5299256;28;20027;-71
2023/08/03 08:11:30;;;;;;;10.02;3.05;;;;;;;-145.79;100.00;75828.13;5296670;28;20035;-71
2023/08/03 08:14:01;;;;;;;6.65;2.03;;;;;;;-145.79;100.00;75821.75;5299877;28;20100;-73
2023/08/03 08:16:33;;;;;;;5.43;2.63;;;;;;;-145.79;100.00;75834.47;5299112;28;20506;-72
2023/08/03 08:19:04;;;;;;;8.80;2.47;;;;;;;-145.79;100.00;75838.72;5301114;28;20077;-72
2023/08/03 08:21:35;;;;;;;7.03;2.72;;;;;;;-145.79;100.00;75855.66;5300534;28;20041;-78
2023/08/03 08:24:07;;;;;;;6.70;2.10;;;;;;;-145.79;100.00;75864.16;5311831;28;20472;-81
2023/08/03 08:26:38;;;;;;;4.82;2.10;;;;;;;-145.79;100.00;75855.66;5303072;28;20437;-79
2023/08/03 08:29:09;;;;;;;6.57;2.63;;;;;;;-145.79;100.00;75862.03;5295096;28;20119;-76
2023/08/03 08:31:41;;;;;;;10.50;2.80;;;;;;;-145.79;100.00;75864.16;5306209;28;20023;-76
2023/08/03 08:34:12;;;;;;;7.07;2.50;;;;;;;-145.79;100.00;75881.09;5289164;28;20059;-74
2023/08/03 08:36:43;;;;;;;6.65;2.05;;;;;;;-145.79;100.00;75876.84;5285209;28;20024;-79
2023/08/03 08:39:15;;;;;;;6.38;2.10;;;;;;;-145.79;100.00;75876.84;5285739;28;20052;-79
2023/08/03 08:41:47;;;;;;;6.80;2.05;;;;;;;-145.79;100.00;75874.75;5286539;28;20019;-79
2023/08/03 08:44:18;;;;;;;4.45;1.85;;;;;;;-145.79;100.00;75887.44;5284595;28;20025;-78
2023/08/03 08:46:50;;;;;;;4.15;1.83;;;;;;;-145.79;100.00;75889.56;5286566;28;20100;-80
2023/08/03 08:49:22;;;;;;;4.82;2.05;;;;;;;-145.79;100.00;75887.44;5296699;28;20024;-79
2023/08/03 08:51:58;;;;;;;3.97;1.60;;;;;;;-145.79;100.00;75893.81;5292136;28;20032;-81
2023/08/03 08:54:33;;;;;;;5.57;3.40;;;;;;;-145.79;100.00;75881.09;5295346;28;20032;-81
2023/08/03 08:57:05;;;;;;;3.70;1.58;;;;;;;-145.79;100.00;75889.56;5289402;28;20537;-81
2023/08/03 08:59:42;;;;;;;3.17;1.50;;;;;;;-145.79;100.00;75893.81;5285792;28;20025;-81
2023/08/03 09:02:24;;;;;;;3.70;1.30;;;;;;;-145.79;100.00;75900.16;5290177;28;20039;-80
2023/08/03 09:04:56;;;;;;;3.85;1.75;;;;;;;-145.79;100.00;75904.41;5284633;28;20103;-81
2023/08/03 09:07:27;;;;;;;3.42;1.30;;;;;;;-145.79;100.00;75908.63;5285536;28;20108;-81
2023/08/03 09:10:02;;;;;;;2.53;1.13;;;;;;;-145.79;100.00;75921.34;5290794;28;20060;-80
2023/08/03 09:12:34;;;;;;;4.30;1.35;;;;;;;-145.79;100.00;75923.47;5289225;28;20021;-80
2023/08/03 09:15:06;;;;;;;3.47;1.33;;;;;;;-145.79;100.00;75931.94;5284895;28;20104;-80
2023/08/03 09:17:37;;;;;;;2.38;1.10;;;;;;;-145.79;100.00;75923.47;5285273;28;20486;-80
2023/08/03 09:20:25;;;;;;;1.52;1.00;;;;;;;-145.79;100.00;75923.47;5279975;28;20080;-80
2023/08/03 09:22:57;;;;;;;1.60;1.02;;;;;;;-145.79;100.00;75927.72;5284652;28;20044;-80
2023/08/03 09:25:29;;;;;;;2.30;1.30;;;;;;;-145.79;100.00;75931.94;5291869;28;20031;-80
2023/08/03 09:28:01;;;;;;;2.65;1.50;;;;;;;-145.79;100.00;75944.66;5292689;28;20423;-81
2023/08/03 09:30:47;;;;;;;3.15;1.50;;;;;;;-145.79;100.00;75940.41;5290430;28;20013;-78
2023/08/03 09:33:19;;;;;;;3.78;1.27;;;;;;;-145.79;100.00;75948.91;5284677;28;20052;-79
2023/08/03 09:36:10;;;;;;;3.28;1.60;;;;;;;-145.79;100.00;75942.53;5284622;28;20109;-81
2023/08/03 09:38:42;;;;;;;3.38;1.83;;;;;;;-145.79;100.00;75957.38;5291471;28;20104;-80
2023/08/03 09:41:13;;;;;;;5.60;2.47;;;;;;;-145.79;100.00;75948.91;5289680;28;20165;-79
2023/08/03 09:43:48;;;;;;;5.35;2.13;;;;;;;-145.79;100.00;75944.66;5286482;28;20103;-79
2023/08/03 09:46:20;;;;;;;5.72;2.22;;;;;;;-145.79;100.00;75955.25;5283120;28;20032;-78
2023/08/03 09:48:51;;;;;;;6.03;2.50;;;;;;;-145.79;100.00;75957.38;5283871;28;20050;-79
2023/08/03 09:51:29;;;;;;;5.55;2.55;;;;;;;-145.79;100.00;75944.66;5289344;28;20154;-80
2023/08/03 09:54:22;;;;;;;8.45;6.72;;;;;;;-145.79;100.00;75944.66;5286863;28;20036;-79
2023/08/03 09:56:59;;;;;;;4.25;2.28;;;;;;;-145.79;100.00;75953.13;5271789;28;20421;-79
2023/08/03 09:59:35;;;;;;;4.85;2.10;;;;;;;-145.79;100.00;75961.63;5273099;28;20484;-78
2023/08/03 10:02:09;;;;;;;8.10;2.83;;;;;;;-145.79;100.00;75963.72;5275175;28;20514;-78
2023/08/03 10:04:45;;;;;;;6.32;2.50;;;;;;;-145.79;100.00;75957.38;5273826;28;20502;-78
2023/08/03 10:07:19;;;;;;;5.95;2.67;;;;;;;-145.79;100.00;75961.63;5271558;28;20075;-78
2023/08/03 10:09:56;;;;;;;7.47;2.88;;;;;;;-145.79;100.00;75961.63;5278307;28;20057;-78
2023/08/03 10:12:40;;;;;;;6.75;2.80;;;;;;;-145.79;100.00;75946.78;5284195;28;20082;-76
2023/08/03 10:15:13;;;;;;;5.97;2.45;;;;;;;-145.79;100.00;75946.78;5278581;28;20095;-79
2023/08/03 10:17:46;;;;;;;6.25;2.75;;;;;;;-145.79;100.00;75940.41;5272646;28;20413;-79
2023/08/03 10:20:18;;;;;;;7.20;2.60;;;;;;;-145.79;100.00;75927.72;5275907;28;20082;-79
2023/08/03 10:23:08;;;;;;;4.47;2.00;;;;;;;-145.79;100.00;75910.75;5274037;28;20051;-78
2023/08/03 10:25:54;;;;;;;5.15;2.20;;;;;;;-145.79;100.00;75910.75;5282643;28;20040;-78
2023/08/03 10:28:40;;;;;;;4.88;2.53;;;;;;;-145.79;100.00;75891.69;5279608;28;20024;-79
2023/08/03 10:31:18;;;;;;;3.95;2.00;;;;;;;-145.79;100.00;75889.56;5282547;28;20123;-79
2023/08/03 10:33:49;;;;;;;5.53;2.13;;;;;;;-145.79;100.00;75895.94;5288613;28;20032;-78
2023/08/03 10:36:30;;;;;;;3.53;1.85;;;;;;;-145.79;100.00;75876.84;5281858;28;20127;-79
2023/08/03 10:39:16;;;;;;;4.40;2.35;;;;;;;-145.79;100.00;75876.84;5283522;28;20029;-79
2023/08/03 10:41:51;;;;;;;4.30;2.22;;;;;;;-145.79;100.00;75881.09;5278210;28;20028;-80
2023/08/03 10:44:23;;;;;;;6.95;2.53;;;;;;;-145.79;100.00;75883.22;5282212;28;20028;-79
2023/08/03 10:46:56;;;;;;;4.35;2.33;;;;;;;-145.79;100.00;75874.75;5283314;28;20503;-79
2023/08/03 10:49:28;;;;;;;3.17;1.58;;;;;;;-145.79;100.00;75862.03;5283221;28;20025;-78
2023/08/03 10:52:18;;;;;;;4.90;2.83;;;;;;;-145.79;100.00;75851.44;5282502;28;20048;-76
2023/08/03 10:54:49;;;;;;;5.47;2.72;;;;;;;-145.79;100.00;75855.66;5275275;28;20425;-80
2023/08/03 10:57:25;;;;;;;5.72;2.13;;;;;;;-145.79;100.00;75859.91;5288745;28;20028;-80
2023/08/03 11:00:02;;;;;;;;;;;;;;;-145.79;99.56;75849.31;5283134;28;20028;-78
2023/08/03 11:02:34;;;;;;;9.13;2.95;;;;;;;-145.79;98.69;75866.25;5288916;28;19915;-80
2023/08/03 11:05:06;;;;;;;6.43;2.15;;;;;;;-145.79;99.13;75876.84;5282368;28;20024;-80
2023/08/03 11:07:43;;;;;;;6.90;2.42;;;;;;;-145.79;99.13;75889.56;5284142;28;20033;-80
2023/08/03 11:10:15;;;;;;;7.47;3.00;;;;;;;-145.79;100.00;75881.09;5283843;28;20051;-80
2023/08/03 11:12:48;;;;;;;3.95;2.35;;;;;;;-145.79;99.34;75885.34;5282079;28;20115;-80
2023/08/03 11:15:20;;;;;;;7.47;2.65;;;;;;;-145.79;98.30;75885.34;5287496;28;20492;-79
2023/08/03 11:17:51;;;;;;;8.00;3.55;;;;;;;-145.79;98.02;75893.81;5278480;28;20040;-80
2023/08/03 11:20:22;;;;;;;6.30;2.08;;;;;;;-145.79;98.72;75900.16;5282445;28;20100;-79
2023/08/03 11:22:54;;;;;;;7.05;2.38;;;;;;;-145.79;100.00;75906.53;5282391;28;20094;-78
2023/08/03 11:25:25;;;;;;;5.68;2.63;;;;;;;-145.79;100.00;75908.63;5284424;28;20025;-81
2023/08/03 11:27:56;;;;;;;7.55;3.05;;;;;;;-145.79;100.00;75934.06;5282816;28;20094;-80
2023/08/03 11:30:28;;;;;;;9.50;3.85;;;;;;;-145.79;100.00;75936.19;5283043;28;20034;-80
2023/08/03 11:32:59;;;;;;;7.40;4.35;;;;;;;-145.79;100.00;75948.91;5282612;28;20538;-79
2023/08/03 11:35:31;;;;;;;6.90;3.20;;;;;;;-145.79;100.00;75957.38;5275959;28;20031;-80
2023/08/03 11:38:06;;;;;;;7.55;3.83;;;;;;;-145.79;100.00;75957.38;5295387;28;20016;-77
2023/08/03 11:40:38;;;;;;;5.88;2.53;;;;;;;-145.79;100.00;75948.91;5281700;28;20078;-76
2023/08/03 11:43:10;;;;;;;7.90;3.40;;;;;;;-145.79;100.00;75946.78;5285366;28;20059;-77
2023/08/03 11:45:43;;;;;;;12.00;7.63;;;;;;;-145.79;100.00;75946.78;5282746;28;20032;-76
2023/08/03 11:48:19;;;;;;;7.63;5.32;;;;;;;-145.79;100.00;75984.91;5281862;28;20016;-78
2023/08/03 11:50:50;;;;;;;28.02;25.70;;;;;;;-145.79;100.00;76004.00;5282976;28;20078;-79
2023/08/03 11:53:26;;;;;;;9.35;7.93;;;;;;;-145.79;100.00;76008.22;5281153;28;20044;-78
2023/08/03 11:55:58;;;;;;;5.68;2.70;;;;;;;-145.79;100.00;75995.50;5282751;28;20033;-78
2023/08/03 11:58:29;;;;;;;4.25;2.67;;;;;;;-145.79;100.00;75999.75;5282577;28;20380;-79
2023/08/03 12:01:03;;;;;;;3.97;2.83;;;;;;;-145.79;100.00;76016.69;5293378;28;20451;-78
2023/08/03 12:03:36;;;;;;;3.70;1.80;;;;;;;-145.79;100.00;76029.41;5285186;28;20328;-77
2023/08/03 12:06:11;;;;;;;4.75;1.55;;;;;;;-145.79;100.00;76044.25;5282236;28;20025;-78
2023/08/03 12:08:46;;;;;;;108.93;99.10;;;;;;;-145.79;100.00;76063.31;5280080;28;20032;-78
2023/08/03 12:11:18;;;;;;;12.73;11.40;;;;;;;-145.79;100.00;76084.50;5286721;28;20793;-77
2023/08/03 12:13:49;;;;;;;5.50;3.80;;;;;;;-145.79;100.00;76084.50;5289114;28;20063;-77
2023/08/03 12:16:21;;;;;;;3.40;2.42;;;;;;;-145.79;100.00;76084.50;5291946;28;20107;-77
2023/08/03 12:18:53;;;;;;;4.28;1.50;;;;;;;-145.79;100.00;76101.47;5285960;28;20383;-77
2023/08/03 12:21:24;;;;;;;3.30;1.70;;;;;;;-145.79;100.00;76122.66;5285746;28;20514;-77
2023/08/03 12:23:56;;;;;;;3.60;2.25;;;;;;;-145.79;100.00;76139.59;5285087;28;20025;-77
2023/08/03 12:26:27;;;;;;;3.15;2.00;;;;;;;-145.79;100.00;76152.31;5280062;28;20023;-78
2023/08/03 12:28:59;;;;;;;2.40;1.80;;;;;;;-145.79;100.00;76171.38;5286252;28;20061;-78
2023/08/03 12:31:31;;;;;;;2.33;1.85;;;;;;;-145.79;100.00;76171.38;5286120;28;20027;-77
2023/08/03 12:34:02;;;;;;;1.98;1.20;;;;;;;-145.79;100.00;76175.63;5294408;28;20016;-77
2023/08/03 12:36:34;;;;;;;2.97;1.35;;;;;;;-145.79;100.00;76190.47;5285625;28;20016;-77
2023/08/03 12:39:05;;;;;;;2.63;1.40;;;;;;;-145.79;100.00;76198.94;5285556;28;20055;-76
2023/08/03 12:41:37;;;;;;;3.40;1.40;;;;;;;-145.79;100.00;76190.47;5291328;28;20476;-76
2023/08/03 12:44:08;;;;;;;3.45;1.40;;;;;;;-145.79;100.00;76186.22;5268869;28;20025;-76
2023/08/03 12:46:39;;;;;;;3.80;2.08;;;;;;;-145.79;100.00;76181.97;5285588;28;20032;-76
2023/08/03 12:49:11;;;;;;;19.77;17.45;;;;;;;-145.79;100.00;76194.69;5285428;28;20107;-76
2023/08/03 12:51:42;;;;;;;5.32;4.80;;;;;;;-145.79;100.00;76196.81;5285129;28;20495;-76
2023/08/03 12:54:14;;;;;;;6.47;2.60;;;;;;;-145.79;100.00;76201.06;5285645;28;20052;-75
2023/08/03 12:56:47;;;;;;;6.80;2.20;;;;;;;-145.79;100.00;76186.22;5284441;28;20032;-77
2023/08/03 12:59:18;;;;;;;4.28;2.47;;;;;;;-145.79;100.00;76190.47;5283703;28;20086;-77
2023/08/03 13:01:50;;;;;;;5.18;2.63;;;;;;;-145.79;100.00;76194.69;5292710;28;20099;-76
2023/08/03 13:04:21;;;;;;;4.25;2.33;;;;;;;-145.79;100.00;76190.47;5284867;28;20086;-79
2023/08/03 13:06:52;;;;;;;4.43;2.25;;;;;;;-145.79;100.00;76194.69;5285950;28;20042;-77
2023/08/03 13:09:24;;;;;;;4.85;2.10;;;;;;;-145.79;100.00;76215.88;5285228;28;20021;-74
2023/08/03 13:11:56;;;;;;;3.63;2.80;;;;;;;-145.79;100.00;76203.16;5284161;28;20028;-74
2023/08/03 13:14:28;;;;;;;4.53;2.58;;;;;;;-145.79;100.00;76196.81;5284816;28;20043;-73
2023/08/03 13:16:59;;;;;;;6.20;2.95;;;;;;;-145.79;100.00;76196.81;5280200;28;20025;-70
2023/08/03 13:19:31;;;;;;;7.82;3.67;;;;;;;-145.79;100.00;76186.22;5284437;28;20027;-76
2023/08/03 13:22:02;;;;;;;61.70;55.15;;;;;;;-145.79;100.00;76186.22;5293005;28;20076;-76
2023/08/03 13:24:34;;;;;;;6.35;3.72;;;;;;;-145.79;100.00;76186.22;5284420;28;20572;-76
2023/08/03 13:27:13;;;;;;;6.78;2.70;;;;;;;-145.79;100.00;76181.97;5284067;28;20017;-75
2023/08/03 13:29:48;;;;;;;8.43;4.75;;;;;;;-145.79;100.00;76181.97;5285061;28;20088;-75
2023/08/03 13:32:21;;;;;;;6.82;3.05;;;;;;;-145.79;100.00;76205.28;5284098;28;20024;-75
2023/08/03 13:34:52;;;;;;;5.70;3.80;;;;;;;-145.79;100.00;76196.81;5289157;28;20029;-75
2023/08/03 13:37:24;;;;;;;8.80;6.25;;;;;;;-145.79;100.00;76190.47;5284049;28;20023;-75
2023/08/03 13:39:55;;;;;;;5.85;3.05;;;;;;;-145.79;99.90;76201.06;5283421;28;20059;-75
2023/08/03 13:42:26;;;;;;;9.48;3.70;;;;;;;-145.79;98.18;76211.66;5283739;28;20471;-74
2023/08/03 13:44:58;;;;;;;11.07;4.10;;;;;;;-145.79;98.30;76205.28;5284301;28;20058;-75
2023/08/03 13:47:29;;;;;;;6.45;3.72;;;;;;;-145.79;100.00;76181.97;5283808;28;20028;-78
2023/08/03 13:50:00;;;;;;;7.70;3.67;;;;;;;-145.79;100.00;76160.78;5285932;28;20128;-75
2023/08/03 13:52:32;;;;;;;8.05;3.65;;;;;;;-145.79;98.29;76160.78;5283847;28;20511;-74
2023/08/03 13:55:03;;;;;;;18.08;15.98;;;;;;;-145.79;97.94;76145.97;5283463;28;20074;-76
2023/08/03 13:57:35;;;;;;;59.90;50.45;;;;;;;-145.79;95.86;76160.78;5284097;28;20033;-74
2023/08/03 14:00:10;;;;;;;10.50;6.55;;;;;;;-145.79;95.84;76152.31;5283322;28;20028;-73
2023/08/03 14:02:41;;;;;;;9.50;3.70;;;;;;;-145.79;93.21;76158.66;5283670;28;20039;-75
2023/08/03 14:05:15;;;;;;;12.40;4.03;;;;;;;-145.79;92.08;76165.03;5283995;28;20020;-76
2023/08/03 14:07:46;;;;;;;9.48;2.95;;;;;;;-145.79;92.72;76158.66;5280481;28;20349;-75
2023/08/03 14:10:18;;;;;;;8.90;3.78;;;;;;;-145.79;91.51;76165.03;5283575;28;20067;-75
2023/08/03 14:12:51;;;;;;;11.13;3.33;;;;;;;-145.79;91.42;76169.25;5283663;28;20375;-74
2023/08/03 14:15:23;;;;;;;8.18;3.80;;;;;;;-145.79;92.66;76173.50;5282586;28;20162;-75
2023/08/03 14:17:54;;;;;;;8.57;3.60;;;;;;;-145.79;92.09;76186.22;5284975;28;20013;-76
2023/08/03 14:20:25;;;;;;;11.77;3.80;;;;;;;-145.79;94.89;76177.75;5287571;28;20066;-76
2023/08/03 14:22:57;;;;;;;8.93;4.05;;;;;;;-145.79;95.14;76175.63;5283028;28;20044;-78
2023/08/03 14:25:29;;;;;;;7.35;3.05;;;;;;;-145.79;92.15;76186.22;5279036;28;20061;-75
2023/08/03 14:28:00;;;;;;;12.40;3.88;;;;;;;-145.79;92.38;76169.25;5283784;28;20028;-77
2023/08/03 14:30:32;;;;;;;7.47;3.95;;;;;;;-145.79;92.91;76160.78;5282668;28;20021;-77
2023/08/03 14:33:05;;;;;;;8.32;3.28;;;;;;;-145.79;91.40;76139.59;5286272;28;20032;-77
2023/08/03 14:35:36;;;;;;;9.73;4.28;;;;;;;-145.79;90.12;76109.94;5287899;28;20028;-77
2023/08/03 14:38:07;;;;;;;8.63;6.25;;;;;;;-145.79;87.37;76105.69;5283373;28;20109;-77
2023/08/03 14:40:39;;;;;;;13.98;9.52;;;;;;;-145.79;86.49;76105.69;5283327;28;20025;-76
2023/08/03 14:43:10;;;;;;;9.85;5.10;;;;;;;-145.79;86.99;76076.03;5277918;28;20094;-78
2023/08/03 14:45:49;;;;;;;7.25;2.88;;;;;;;-145.79;85.62;76099.34;5289861;28;20507;-77
2023/08/03 14:48:20;;;;;;;11.52;5.32;;;;;;;-145.79;86.49;76116.28;5283170;28;20064;-76
2023/08/03 14:50:52;;;;;;;7.15;3.45;;;;;;;-145.79;87.24;76118.41;5282280;28;20055;-76
2023/08/03 14:53:23;;;;;;;8.65;3.40;;;;;;;-145.79;85.65;76143.84;5283296;28;20044;-79
2023/08/03 14:56:02;;;;;;;4.45;2.65;;;;;;;-145.79;83.94;76165.03;5284795;28;20365;-78
2023/08/03 14:58:36;;;;;;;5.40;2.60;;;;;;;-145.79;81.72;76186.22;5287490;28;20375;-78
2023/08/03 15:01:08;;;;;;;7.35;3.17;;;;;;;-145.79;82.44;76181.97;5282940;28;20048;-76
2023/08/03 15:03:40;;;;;;;9.25;3.47;;;;;;;-145.79;83.23;76169.25;5281740;28;20040;-76
2023/08/03 15:06:16;;;;;;;6.72;2.88;;;;;;;-145.79;82.93;76177.75;5282699;28;20032;-75
2023/08/03 15:08:48;;;;;;;7.30;4.38;;;;;;;-145.79;83.05;76165.03;5283005;28;20059;-75
2023/08/03 15:11:20;;;;;;;8.02;2.72;;;;;;;-145.79;83.98;76156.56;5293108;28;20025;-76
2023/08/03 15:13:51;;;;;;;7.00;3.40;;;;;;;-145.79;83.22;76145.97;5282482;28;20036;-76
2023/08/03 15:16:23;;;;;;;7.40;2.78;;;;;;;-145.79;80.86;76139.59;5278573;28;20036;-75
2023/08/03 15:18:54;;;;;;;4.53;2.70;;;;;;;-145.79;80.93;76143.84;5281936;28;20063;-74
2023/08/03 15:21:26;;;;;;;5.90;2.03;;;;;;;-145.79;79.76;76145.97;5282465;28;20068;-74
2023/08/03 15:23:58;;;;;;;9.20;2.83;;;;;;;-145.79;80.95;76133.25;5282898;28;20025;-73
2023/08/03 15:26:30;;;;;;;7.55;2.90;;;;;;;-145.79;80.72;76135.38;5282074;28;20109;-74
2023/08/03 15:29:03;;;;;;;7.68;4.28;;;;;;;-145.79;80.51;76122.66;5282616;28;20380;-78
2023/08/03 15:31:35;;;;;;;6.75;2.90;;;;;;;-145.79;79.29;76126.88;5281820;28;20036;-77
2023/08/03 15:34:08;;;;;;;8.88;3.78;;;;;;;-145.79;78.51;76101.47;5276510;28;20387;-77
2023/08/03 15:36:42;;;;;;;3.88;2.40;;;;;;;-145.79;79.44;76090.88;5286641;28;20027;-78
2023/08/03 15:39:13;;;;;;;6.35;3.20;;;;;;;-145.79;77.47;76076.03;5289948;28;20047;-78
2023/08/03 15:41:46;;;;;;;10.13;7.07;;;;;;;-145.79;74.77;76097.22;5282903;28;20028;-78
2023/08/03 15:44:21;;;;;;;15.85;12.50;;;;;;;-145.79;74.36;76112.06;5289837;28;20027;-83
2023/08/03 15:46:54;;;;;;;9.25;4.63;;;;;;;-145.79;75.00;76122.66;5288981;28;20036;-74
2023/08/03 15:49:25;;;;;;;4.82;2.17;;;;;;;-145.79;73.87;76141.72;5284664;28;20056;-77
2023/08/03 15:51:56;;;;;;;6.07;2.42;;;;;;;-145.79;74.86;76137.47;5280112;28;20028;-77
2023/08/03 15:54:28;;;;;;;6.70;2.55;;;;;;;-145.79;74.68;76133.25;5283628;28;20063;-77
2023/08/03 15:56:59;;;;;;;8.32;2.40;;;;;;;-145.79;74.12;76152.31;5285180;28;20120;-73
2023/08/03 15:59:31;;;;;;;4.95;2.10;;;;;;;-145.79;73.44;76158.66;5285760;28;20474;-74
2023/08/03 16:02:02;;;;;;;6.32;2.42;;;;;;;-145.79;73.88;76167.16;5286555;28;20494;-73
2023/08/03 16:04:33;;;;;;;5.47;2.00;;;;;;;-145.79;74.14;76169.25;5286479;28;20031;-74
2023/08/03 16:07:05;;;;;;;22.65;20.42;;;;;;;-145.79;74.87;76190.47;5285221;28;20025;-73
2023/08/03 16:09:36;;;;;;;8.38;5.53;;;;;;;-145.79;75.98;76190.47;5286365;28;20032;-73
2023/08/03 16:12:08;;;;;;;5.60;2.40;;;;;;;-145.79;75.77;76192.56;5286157;28;20107;-75
2023/08/03 16:14:42;;;;;;;6.82;2.70;;;;;;;-145.79;76.51;76203.16;5285639;28;20418;-73
2023/08/03 16:17:15;;;;;;;4.07;2.45;;;;;;;-145.79;76.76;76207.41;5286280;28;20024;-73
2023/08/03 16:19:46;;;;;;;7.57;2.53;;;;;;;-145.79;76.29;76211.66;5285980;28;20028;-74
2023/08/03 16:22:18;;;;;;;6.03;2.53;;;;;;;-145.79;76.80;76228.59;5284692;28;20043;-74
2023/08/03 16:24:52;;;;;;;5.55;2.30;;;;;;;-145.79;78.53;76220.13;5280892;28;20036;-73
2023/08/03 16:27:23;;;;;;;5.72;2.85;;;;;;;-145.79;77.26;76237.06;5285639;28;20028;-73
2023/08/03 16:29:55;;;;;;;5.22;2.33;;;;;;;-145.79;76.19;76254.03;5285076;28;20025;-74
2023/08/03 16:32:26;;;;;;;9.45;2.30;;;;;;;-145.79;76.92;76260.38;5285839;28;20017;-73
2023/08/03 16:34:58;;;;;;;5.85;3.47;;;;;;;-145.79;77.28;76290.06;5284727;28;20029;-73
2023/08/03 16:37:29;;;;;;;5.47;2.10;;;;;;;-145.79;78.27;76319.72;5285719;28;20499;-74
2023/08/03 16:40:02;;;;;;;4.82;2.50;;;;;;;-145.79;77.93;76319.72;5285615;28;20094;-74
2023/08/03 16:42:33;;;;;;;6.70;2.70;;;;;;;-145.79;78.62;76319.72;5282054;28;20034;-74
2023/08/03 16:45:05;;;;;;;6.00;2.92;;;;;;;-145.79;79.31;76313.34;5285727;28;20017;-74
2023/08/03 16:47:36;;;;;;;6.35;2.17;;;;;;;-145.79;79.29;76315.47;5285096;28;20024;-74
2023/08/03 16:50:08;;;;;;;7.68;3.17;;;;;;;-145.79;79.52;76304.88;5288722;28;20077;-73
2023/08/03 16:52:40;;;;;;;7.03;2.83;;;;;;;-145.79;78.00;76287.94;5285066;28;20020;-74
